sensor_id;sensor_type;location;lat;lon;timestamp;P1;durP1;ratioP1;P2;durP2;ratioP2
76640;SDS011;65538;50.798;6.064;2023-08-24T00:01:19;11.80;;;6.22;;
76640;SDS011;65538;50.798;6.064;2023-08-24T00:03:44;10.50;;;5.13;;
76640;SDS011;65538;50.798;6.064;2023-08-24T00:06:11;9.63;;;5.18;;
76640;SDS011;65538;50.798;6.064;2023-08-24T00:08:36;8.68;;;4.72;;
76640;SDS011;65538;50.798;6.064;2023-08-24T00:11:02;8.90;;;5.10;;
76640;SDS011;65538;50.798;6.064;2023-08-24T00:13:27;7.93;;;5.13;;
76640;SDS011;65538;50.798;6.064;2023-08-24T00:15:53;9.63;;;5.57;;
76640;SDS011;65538;50.798;6.064;2023-08-24T00:18:19;11.73;;;6.10;;
76640;SDS011;65538;50.798;6.064;2023-08-24T00:20:44;11.00;;;5.32;;
76640;SDS011;65538;50.798;6.064;2023-08-24T00:23:09;10.00;;;5.40;;
76640;SDS011;65538;50.798;6.064;2023-08-24T00:25:34;7.67;;;5.07;;
76640;SDS011;65538;50.798;6.064;2023-08-24T00:27:59;7.10;;;5.10;;
76640;SDS011;65538;50.798;6.064;2023-08-24T00:30:25;8.10;;;4.80;;
76640;SDS011;65538;50.798;6.064;2023-08-24T00:32:50;8.30;;;4.97;;
76640;SDS011;65538;50.798;6.064;2023-08-24T00:35:15;8.17;;;4.80;;
76640;SDS011;65538;50.798;6.064;2023-08-24T00:37:40;9.67;;;4.67;;
76640;SDS011;65538;50.798;6.064;2023-08-24T00:40:06;10.37;;;4.80;;
76640;SDS011;65538;50.798;6.064;2023-08-24T00:42:38;10.88;;;4.82;;
76640;SDS011;65538;50.798;6.064;2023-08-24T00:45:04;9.25;;;5.25;;
76640;SDS011;65538;50.798;6.064;2023-08-24T00:47:30;9.98;;;6.03;;
76640;SDS011;65538;50.798;6.064;2023-08-24T00:49:55;10.23;;;5.70;;
76640;SDS011;65538;50.798;6.064;2023-08-24T00:52:20;10.02;;;6.22;;
76640;SDS011;65538;50.798;6.064;2023-08-24T00:54:45;10.68;;;5.55;;
76640;SDS011;65538;50.798;6.064;2023-08-24T00:57:11;9.25;;;5.65;;
76640;SDS011;65538;50.798;6.064;2023-08-24T00:59:37;8.87;;;5.37;;
76640;SDS011;65538;50.798;6.064;2023-08-24T01:02:02;12.20;;;5.35;;
76640;SDS011;65538;50.798;6.064;2023-08-24T01:04:27;8.03;;;4.40;;
76640;SDS011;65538;50.798;6.064;2023-08-24T01:06:52;12.70;;;7.67;;
76640;SDS011;65538;50.798;6.064;2023-08-24T01:09:18;10.13;;;4.90;;
76640;SDS011;65538;50.798;6.064;2023-08-24T01:14:16;13.85;;;7.60;;
76640;SDS011;65538;50.798;6.064;2023-08-24T01:16:45;14.55;;;8.93;;
76640;SDS011;65538;50.798;6.064;2023-08-24T01:19:16;15.45;;;6.40;;
76640;SDS011;65538;50.798;6.064;2023-08-24T01:21:46;11.93;;;6.90;;
76640;SDS011;65538;50.798;6.064;2023-08-24T01:24:17;11.63;;;6.80;;
76640;SDS011;65538;50.798;6.064;2023-08-24T01:26:43;11.18;;;6.85;;
76640;SDS011;65538;50.798;6.064;2023-08-24T01:29:09;9.68;;;5.72;;
76640;SDS011;65538;50.798;6.064;2023-08-24T01:31:34;10.90;;;6.10;;
76640;SDS011;65538;50.798;6.064;2023-08-24T01:34:00;10.60;;;6.30;;
76640;SDS011;65538;50.798;6.064;2023-08-24T01:36:26;9.05;;;4.18;;
76640;SDS011;65538;50.798;6.064;2023-08-24T01:39:11;12.20;;;5.70;;
76640;SDS011;65538;50.798;6.064;2023-08-24T01:41:36;15.57;;;8.52;;
76640;SDS011;65538;50.798;6.064;2023-08-24T01:44:08;17.50;;;9.05;;
76640;SDS011;65538;50.798;6.064;2023-08-24T01:46:34;11.00;;;6.40;;
76640;SDS011;65538;50.798;6.064;2023-08-24T01:49:01;10.05;;;4.60;;
76640;SDS011;65538;50.798;6.064;2023-08-24T01:51:28;9.38;;;5.47;;
76640;SDS011;65538;50.798;6.064;2023-08-24T01:53:53;6.75;;;4.32;;
76640;SDS011;65538;50.798;6.064;2023-08-24T01:56:18;11.47;;;6.10;;
76640;SDS011;65538;50.798;6.064;2023-08-24T01:58:44;11.63;;;6.43;;
76640;SDS011;65538;50.798;6.064;2023-08-24T02:01:09;9.77;;;5.07;;
76640;SDS011;65538;50.798;6.064;2023-08-24T02:03:35;9.15;;;3.92;;
76640;SDS011;65538;50.798;6.064;2023-08-24T02:06:00;13.73;;;7.70;;
76640;SDS011;65538;50.798;6.064;2023-08-24T02:08:25;15.50;;;7.33;;
76640;SDS011;65538;50.798;6.064;2023-08-24T02:10:51;10.07;;;4.20;;
76640;SDS011;65538;50.798;6.064;2023-08-24T02:13:16;10.07;;;4.03;;
76640;SDS011;65538;50.798;6.064;2023-08-24T02:15:41;10.70;;;6.90;;
76640;SDS011;65538;50.798;6.064;2023-08-24T02:18:07;10.10;;;6.37;;
76640;SDS011;65538;50.798;6.064;2023-08-24T02:20:38;9.43;;;3.80;;
76640;SDS011;65538;50.798;6.064;2023-08-24T02:23:04;8.48;;;4.20;;
76640;SDS011;65538;50.798;6.064;2023-08-24T02:25:30;9.85;;;5.13;;
76640;SDS011;65538;50.798;6.064;2023-08-24T02:27:55;9.40;;;5.25;;
76640;SDS011;65538;50.798;6.064;2023-08-24T02:30:20;9.93;;;5.70;;
76640;SDS011;65538;50.798;6.064;2023-08-24T02:32:45;12.57;;;6.83;;
76640;SDS011;65538;50.798;6.064;2023-08-24T02:35:11;10.83;;;4.70;;
76640;SDS011;65538;50.798;6.064;2023-08-24T02:37:36;9.00;;;4.97;;
76640;SDS011;65538;50.798;6.064;2023-08-24T02:40:01;7.07;;;3.77;;
76640;SDS011;65538;50.798;6.064;2023-08-24T02:42:27;8.18;;;4.45;;
76640;SDS011;65538;50.798;6.064;2023-08-24T02:44:52;7.97;;;5.27;;
76640;SDS011;65538;50.798;6.064;2023-08-24T02:47:17;10.33;;;5.93;;
76640;SDS011;65538;50.798;6.064;2023-08-24T02:49:42;12.53;;;6.67;;
76640;SDS011;65538;50.798;6.064;2023-08-24T02:52:07;10.47;;;6.07;;
76640;SDS011;65538;50.798;6.064;2023-08-24T02:54:33;8.33;;;5.20;;
76640;SDS011;65538;50.798;6.064;2023-08-24T02:56:59;11.15;;;5.85;;
76640;SDS011;65538;50.798;6.064;2023-08-24T02:59:24;9.52;;;6.22;;
76640;SDS011;65538;50.798;6.064;2023-08-24T03:01:50;11.67;;;6.70;;
76640;SDS011;65538;50.798;6.064;2023-08-24T03:04:15;15.60;;;6.13;;
76640;SDS011;65538;50.798;6.064;2023-08-24T03:06:40;13.50;;;6.63;;
76640;SDS011;65538;50.798;6.064;2023-08-24T03:09:05;12.07;;;6.30;;
76640;SDS011;65538;50.798;6.064;2023-08-24T03:11:31;12.80;;;5.80;;
76640;SDS011;65538;50.798;6.064;2023-08-24T03:13:56;9.83;;;5.77;;
76640;SDS011;65538;50.798;6.064;2023-08-24T03:16:21;8.30;;;5.17;;
76640;SDS011;65538;50.798;6.064;2023-08-24T03:18:46;8.15;;;5.32;;
76640;SDS011;65538;50.798;6.064;2023-08-24T03:21:12;7.97;;;4.50;;
76640;SDS011;65538;50.798;6.064;2023-08-24T03:23:37;7.77;;;4.27;;
76640;SDS011;65538;50.798;6.064;2023-08-24T03:26:02;8.67;;;4.03;;
76640;SDS011;65538;50.798;6.064;2023-08-24T03:28:28;8.27;;;4.28;;
76640;SDS011;65538;50.798;6.064;2023-08-24T03:30:53;7.78;;;4.55;;
76640;SDS011;65538;50.798;6.064;2023-08-24T03:33:20;7.85;;;4.47;;
76640;SDS011;65538;50.798;6.064;2023-08-24T03:35:45;6.33;;;4.50;;
76640;SDS011;65538;50.798;6.064;2023-08-24T03:38:10;8.67;;;4.53;;
76640;SDS011;65538;50.798;6.064;2023-08-24T03:40:36;6.40;;;4.20;;
76640;SDS011;65538;50.798;6.064;2023-08-24T03:43:01;7.67;;;4.33;;
76640;SDS011;65538;50.798;6.064;2023-08-24T03:45:27;8.55;;;4.65;;
76640;SDS011;65538;50.798;6.064;2023-08-24T03:47:52;7.77;;;3.93;;
76640;SDS011;65538;50.798;6.064;2023-08-24T03:50:17;7.03;;;4.40;;
76640;SDS011;65538;50.798;6.064;2023-08-24T03:52:42;7.83;;;4.20;;
76640;SDS011;65538;50.798;6.064;2023-08-24T03:55:08;7.27;;;3.80;;
76640;SDS011;65538;50.798;6.064;2023-08-24T03:57:33;7.88;;;5.10;;
76640;SDS011;65538;50.798;6.064;2023-08-24T03:59:58;8.63;;;4.57;;
76640;SDS011;65538;50.798;6.064;2023-08-24T04:02:24;11.40;;;4.83;;
76640;SDS011;65538;50.798;6.064;2023-08-24T04:04:50;9.60;;;4.70;;
76640;SDS011;65538;50.798;6.064;2023-08-24T04:07:15;12.70;;;4.70;;
76640;SDS011;65538;50.798;6.064;2023-08-24T04:09:40;9.27;;;4.90;;
76640;SDS011;65538;50.798;6.064;2023-08-24T04:12:06;7.85;;;5.40;;
76640;SDS011;65538;50.798;6.064;2023-08-24T04:14:31;7.83;;;4.67;;
76640;SDS011;65538;50.798;6.064;2023-08-24T04:16:56;10.10;;;4.67;;
76640;SDS011;65538;50.798;6.064;2023-08-24T04:19:21;11.07;;;4.33;;
76640;SDS011;65538;50.798;6.064;2023-08-24T04:21:47;10.23;;;4.35;;
76640;SDS011;65538;50.798;6.064;2023-08-24T04:24:12;7.70;;;4.57;;
76640;SDS011;65538;50.798;6.064;2023-08-24T04:26:37;9.47;;;4.40;;
76640;SDS011;65538;50.798;6.064;2023-08-24T04:29:02;8.53;;;5.13;;
76640;SDS011;65538;50.798;6.064;2023-08-24T04:31:27;7.23;;;4.53;;
76640;SDS011;65538;50.798;6.064;2023-08-24T04:33:53;7.53;;;4.40;;
76640;SDS011;65538;50.798;6.064;2023-08-24T04:36:18;7.70;;;4.73;;
76640;SDS011;65538;50.798;6.064;2023-08-24T04:38:43;10.07;;;4.40;;
76640;SDS011;65538;50.798;6.064;2023-08-24T04:41:09;6.40;;;3.72;;
76640;SDS011;65538;50.798;6.064;2023-08-24T04:43:34;8.07;;;4.25;;
76640;SDS011;65538;50.798;6.064;2023-08-24T04:46:01;12.30;;;4.60;;
76640;SDS011;65538;50.798;6.064;2023-08-24T04:48:26;10.60;;;5.30;;
76640;SDS011;65538;50.798;6.064;2023-08-24T04:50:52;7.07;;;4.40;;
76640;SDS011;65538;50.798;6.064;2023-08-24T04:53:21;11.13;;;4.13;;
76640;SDS011;65538;50.798;6.064;2023-08-24T04:55:46;9.60;;;4.45;;
76640;SDS011;65538;50.798;6.064;2023-08-24T04:58:12;8.77;;;4.40;;
76640;SDS011;65538;50.798;6.064;2023-08-24T05:00:38;12.27;;;4.07;;
76640;SDS011;65538;50.798;6.064;2023-08-24T05:03:04;7.57;;;4.85;;
76640;SDS011;65538;50.798;6.064;2023-08-24T05:05:29;12.82;;;4.63;;
76640;SDS011;65538;50.798;6.064;2023-08-24T05:07:56;7.97;;;4.22;;
76640;SDS011;65538;50.798;6.064;2023-08-24T05:10:21;9.60;;;5.00;;
76640;SDS011;65538;50.798;6.064;2023-08-24T05:12:46;6.75;;;4.60;;
76640;SDS011;65538;50.798;6.064;2023-08-24T05:15:12;11.40;;;4.63;;
76640;SDS011;65538;50.798;6.064;2023-08-24T05:17:38;7.95;;;5.07;;
76640;SDS011;65538;50.798;6.064;2023-08-24T05:20:03;7.90;;;3.97;;
76640;SDS011;65538;50.798;6.064;2023-08-24T05:22:29;7.75;;;4.47;;
76640;SDS011;65538;50.798;6.064;2023-08-24T05:24:54;9.13;;;4.30;;
76640;SDS011;65538;50.798;6.064;2023-08-24T05:27:19;9.33;;;4.37;;
76640;SDS011;65538;50.798;6.064;2023-08-24T05:29:44;8.03;;;3.90;;
76640;SDS011;65538;50.798;6.064;2023-08-24T05:32:09;8.37;;;4.07;;
76640;SDS011;65538;50.798;6.064;2023-08-24T05:34:35;13.43;;;6.37;;
76640;SDS011;65538;50.798;6.064;2023-08-24T05:37:00;7.90;;;4.67;;
76640;SDS011;65538;50.798;6.064;2023-08-24T05:39:25;7.57;;;4.47;;
76640;SDS011;65538;50.798;6.064;2023-08-24T05:41:50;8.00;;;4.50;;
76640;SDS011;65538;50.798;6.064;2023-08-24T05:44:16;8.95;;;4.75;;
76640;SDS011;65538;50.798;6.064;2023-08-24T05:46:42;11.07;;;4.75;;
76640;SDS011;65538;50.798;6.064;2023-08-24T05:49:07;10.73;;;4.53;;
76640;SDS011;65538;50.798;6.064;2023-08-24T05:51:32;9.27;;;4.23;;
76640;SDS011;65538;50.798;6.064;2023-08-24T05:53:57;10.43;;;5.17;;
76640;SDS011;65538;50.798;6.064;2023-08-24T05:56:23;10.38;;;5.60;;
76640;SDS011;65538;50.798;6.064;2023-08-24T05:58:48;8.40;;;4.83;;
76640;SDS011;65538;50.798;6.064;2023-08-24T06:01:13;11.47;;;5.93;;
76640;SDS011;65538;50.798;6.064;2023-08-24T06:03:38;9.27;;;5.30;;
76640;SDS011;65538;50.798;6.064;2023-08-24T06:06:04;9.53;;;5.47;;
76640;SDS011;65538;50.798;6.064;2023-08-24T06:08:29;19.30;;;9.57;;
76640;SDS011;65538;50.798;6.064;2023-08-24T06:10:55;23.13;;;12.13;;
76640;SDS011;65538;50.798;6.064;2023-08-24T06:13:20;14.60;;;8.15;;
76640;SDS011;65538;50.798;6.064;2023-08-24T06:15:45;9.77;;;5.70;;
76640;SDS011;65538;50.798;6.064;2023-08-24T06:18:11;12.47;;;5.67;;
76640;SDS011;65538;50.798;6.064;2023-08-24T06:20:36;11.00;;;5.60;;
76640;SDS011;65538;50.798;6.064;2023-08-24T06:23:01;9.90;;;4.90;;
76640;SDS011;65538;50.798;6.064;2023-08-24T06:25:27;9.45;;;5.68;;
76640;SDS011;65538;50.798;6.064;2023-08-24T06:27:52;9.20;;;5.47;;
76640;SDS011;65538;50.798;6.064;2023-08-24T06:30:18;11.60;;;6.30;;
76640;SDS011;65538;50.798;6.064;2023-08-24T06:32:43;10.13;;;5.83;;
76640;SDS011;65538;50.798;6.064;2023-08-24T06:35:08;11.40;;;5.70;;
76640;SDS011;65538;50.798;6.064;2023-08-24T06:37:33;10.53;;;6.93;;
76640;SDS011;65538;50.798;6.064;2023-08-24T06:39:59;10.57;;;6.10;;
76640;SDS011;65538;50.798;6.064;2023-08-24T06:42:24;11.87;;;6.83;;
76640;SDS011;65538;50.798;6.064;2023-08-24T06:44:49;12.57;;;7.30;;
76640;SDS011;65538;50.798;6.064;2023-08-24T06:47:17;10.63;;;5.30;;
76640;SDS011;65538;50.798;6.064;2023-08-24T06:49:42;9.23;;;6.00;;
76640;SDS011;65538;50.798;6.064;2023-08-24T06:52:08;8.97;;;5.60;;
76640;SDS011;65538;50.798;6.064;2023-08-24T06:54:33;11.18;;;7.82;;
76640;SDS011;65538;50.798;6.064;2023-08-24T06:56:58;14.33;;;6.77;;
76640;SDS011;65538;50.798;6.064;2023-08-24T06:59:23;9.73;;;6.17;;
76640;SDS011;65538;50.798;6.064;2023-08-24T07:01:49;10.02;;;5.00;;
76640;SDS011;65538;50.798;6.064;2023-08-24T07:04:14;9.80;;;4.33;;
76640;SDS011;65538;50.798;6.064;2023-08-24T07:06:39;8.00;;;5.07;;
76640;SDS011;65538;50.798;6.064;2023-08-24T07:09:05;8.90;;;4.53;;
76640;SDS011;65538;50.798;6.064;2023-08-24T07:11:32;8.65;;;3.90;;
76640;SDS011;65538;50.798;6.064;2023-08-24T07:13:57;11.53;;;5.13;;
76640;SDS011;65538;50.798;6.064;2023-08-24T07:16:22;8.20;;;4.40;;
76640;SDS011;65538;50.798;6.064;2023-08-24T07:18:47;11.13;;;3.83;;
76640;SDS011;65538;50.798;6.064;2023-08-24T07:21:13;7.50;;;4.20;;
76640;SDS011;65538;50.798;6.064;2023-08-24T07:23:39;8.02;;;4.07;;
76640;SDS011;65538;50.798;6.064;2023-08-24T07:26:04;5.53;;;3.27;;
76640;SDS011;65538;50.798;6.064;2023-08-24T07:28:30;7.95;;;3.53;;
76640;SDS011;65538;50.798;6.064;2023-08-24T07:30:55;10.70;;;3.83;;
76640;SDS011;65538;50.798;6.064;2023-08-24T07:33:21;5.15;;;3.03;;
76640;SDS011;65538;50.798;6.064;2023-08-24T07:35:46;6.18;;;3.45;;
76640;SDS011;65538;50.798;6.064;2023-08-24T07:38:11;9.10;;;3.33;;
76640;SDS011;65538;50.798;6.064;2023-08-24T07:40:37;8.07;;;3.50;;
76640;SDS011;65538;50.798;6.064;2023-08-24T07:43:02;5.23;;;3.03;;
76640;SDS011;65538;50.798;6.064;2023-08-24T07:45:27;5.55;;;2.90;;
76640;SDS011;65538;50.798;6.064;2023-08-24T07:47:53;5.63;;;3.13;;
76640;SDS011;65538;50.798;6.064;2023-08-24T07:50:18;6.88;;;2.92;;
76640;SDS011;65538;50.798;6.064;2023-08-24T07:52:44;7.28;;;2.70;;
76640;SDS011;65538;50.798;6.064;2023-08-24T07:55:09;6.05;;;2.55;;
76640;SDS011;65538;50.798;6.064;2023-08-24T07:57:35;6.70;;;2.90;;
76640;SDS011;65538;50.798;6.064;2023-08-24T08:00:00;5.15;;;2.70;;
76640;SDS011;65538;50.798;6.064;2023-08-24T08:02:25;4.38;;;2.60;;
76640;SDS011;65538;50.798;6.064;2023-08-24T08:04:51;5.13;;;3.03;;
76640;SDS011;65538;50.798;6.064;2023-08-24T08:07:16;7.05;;;2.78;;
76640;SDS011;65538;50.798;6.064;2023-08-24T08:09:42;8.63;;;3.37;;
76640;SDS011;65538;50.798;6.064;2023-08-24T08:12:07;5.47;;;2.70;;
76640;SDS011;65538;50.798;6.064;2023-08-24T08:14:32;4.37;;;2.37;;
76640;SDS011;65538;50.798;6.064;2023-08-24T08:16:57;5.80;;;2.53;;
76640;SDS011;65538;50.798;6.064;2023-08-24T08:19:23;5.47;;;2.50;;
76640;SDS011;65538;50.798;6.064;2023-08-24T08:21:50;5.20;;;2.78;;
76640;SDS011;65538;50.798;6.064;2023-08-24T08:24:15;6.30;;;2.83;;
76640;SDS011;65538;50.798;6.064;2023-08-24T08:26:40;7.63;;;2.87;;
76640;SDS011;65538;50.798;6.064;2023-08-24T08:29:05;6.00;;;2.80;;
76640;SDS011;65538;50.798;6.064;2023-08-24T08:31:31;6.97;;;3.20;;
76640;SDS011;65538;50.798;6.064;2023-08-24T08:33:56;4.77;;;2.63;;
76640;SDS011;65538;50.798;6.064;2023-08-24T08:36:21;4.20;;;2.20;;
76640;SDS011;65538;50.798;6.064;2023-08-24T08:38:46;5.40;;;2.47;;
76640;SDS011;65538;50.798;6.064;2023-08-24T08:41:11;6.00;;;2.53;;
76640;SDS011;65538;50.798;6.064;2023-08-24T08:43:37;8.48;;;2.45;;
76640;SDS011;65538;50.798;6.064;2023-08-24T08:46:03;4.78;;;2.60;;
76640;SDS011;65538;50.798;6.064;2023-08-24T08:48:29;9.20;;;3.03;;
76640;SDS011;65538;50.798;6.064;2023-08-24T08:50:57;4.57;;;2.42;;
76640;SDS011;65538;50.798;6.064;2023-08-24T08:53:22;7.40;;;2.50;;
76640;SDS011;65538;50.798;6.064;2023-08-24T08:55:49;7.10;;;2.70;;
76640;SDS011;65538;50.798;6.064;2023-08-24T08:58:15;4.82;;;2.33;;
76640;SDS011;65538;50.798;6.064;2023-08-24T09:00:40;5.13;;;2.33;;
76640;SDS011;65538;50.798;6.064;2023-08-24T09:03:05;9.73;;;2.57;;
76640;SDS011;65538;50.798;6.064;2023-08-24T09:05:31;5.10;;;2.65;;
76640;SDS011;65538;50.798;6.064;2023-08-24T09:07:56;8.25;;;3.40;;
76640;SDS011;65538;50.798;6.064;2023-08-24T09:10:23;5.10;;;2.55;;
76640;SDS011;65538;50.798;6.064;2023-08-24T09:12:48;6.07;;;2.83;;
76640;SDS011;65538;50.798;6.064;2023-08-24T09:15:13;5.57;;;3.20;;
76640;SDS011;65538;50.798;6.064;2023-08-24T09:17:42;6.13;;;2.60;;
76640;SDS011;65538;50.798;6.064;2023-08-24T09:20:07;5.78;;;2.53;;
76640;SDS011;65538;50.798;6.064;2023-08-24T09:22:35;8.63;;;3.00;;
76640;SDS011;65538;50.798;6.064;2023-08-24T09:25:01;6.50;;;3.20;;
76640;SDS011;65538;50.798;6.064;2023-08-24T09:27:28;8.98;;;2.88;;
76640;SDS011;65538;50.798;6.064;2023-08-24T09:29:54;6.73;;;2.73;;
76640;SDS011;65538;50.798;6.064;2023-08-24T09:32:28;6.50;;;2.70;;
76640;SDS011;65538;50.798;6.064;2023-08-24T09:34:54;5.30;;;3.17;;
76640;SDS011;65538;50.798;6.064;2023-08-24T09:37:19;9.43;;;2.55;;
76640;SDS011;65538;50.798;6.064;2023-08-24T09:39:45;8.43;;;3.05;;
76640;SDS011;65538;50.798;6.064;2023-08-24T09:42:10;8.13;;;2.55;;
76640;SDS011;65538;50.798;6.064;2023-08-24T09:44:36;8.15;;;2.83;;
76640;SDS011;65538;50.798;6.064;2023-08-24T09:47:01;6.80;;;3.00;;
76640;SDS011;65538;50.798;6.064;2023-08-24T09:49:28;6.28;;;2.67;;
76640;SDS011;65538;50.798;6.064;2023-08-24T09:51:55;8.23;;;2.83;;
76640;SDS011;65538;50.798;6.064;2023-08-24T09:54:20;8.20;;;2.60;;
76640;SDS011;65538;50.798;6.064;2023-08-24T09:56:46;7.78;;;2.80;;
76640;SDS011;65538;50.798;6.064;2023-08-24T09:59:14;7.25;;;2.30;;
76640;SDS011;65538;50.798;6.064;2023-08-24T10:01:42;14.52;;;6.53;;
76640;SDS011;65538;50.798;6.064;2023-08-24T10:04:08;11.68;;;2.50;;
76640;SDS011;65538;50.798;6.064;2023-08-24T10:06:34;5.40;;;2.80;;
76640;SDS011;65538;50.798;6.064;2023-08-24T10:09:01;11.05;;;2.80;;
76640;SDS011;65538;50.798;6.064;2023-08-24T10:11:30;6.93;;;2.78;;
76640;SDS011;65538;50.798;6.064;2023-08-24T10:16:32;7.05;;;2.58;;
76640;SDS011;65538;50.798;6.064;2023-08-24T10:18:58;11.75;;;2.95;;
76640;SDS011;65538;50.798;6.064;2023-08-24T10:21:24;8.68;;;3.50;;
76640;SDS011;65538;50.798;6.064;2023-08-24T10:23:50;8.20;;;2.90;;
76640;SDS011;65538;50.798;6.064;2023-08-24T10:26:16;7.00;;;2.80;;
76640;SDS011;65538;50.798;6.064;2023-08-24T10:28:42;6.72;;;2.63;;
76640;SDS011;65538;50.798;6.064;2023-08-24T10:31:08;9.48;;;3.00;;
76640;SDS011;65538;50.798;6.064;2023-08-24T10:33:33;9.15;;;3.08;;
76640;SDS011;65538;50.798;6.064;2023-08-24T10:35:59;11.43;;;2.60;;
76640;SDS011;65538;50.798;6.064;2023-08-24T10:38:25;6.30;;;3.07;;
76640;SDS011;65538;50.798;6.064;2023-08-24T10:40:51;7.43;;;2.90;;
76640;SDS011;65538;50.798;6.064;2023-08-24T10:43:16;8.23;;;3.38;;
76640;SDS011;65538;50.798;6.064;2023-08-24T10:48:19;6.13;;;2.53;;
76640;SDS011;65538;50.798;6.064;2023-08-24T10:51:06;8.77;;;3.37;;
76640;SDS011;65538;50.798;6.064;2023-08-24T10:53:39;10.82;;;3.00;;
76640;SDS011;65538;50.798;6.064;2023-08-24T10:56:14;6.72;;;2.97;;
76640;SDS011;65538;50.798;6.064;2023-08-24T10:58:39;10.10;;;3.00;;
76640;SDS011;65538;50.798;6.064;2023-08-24T11:01:04;6.22;;;2.55;;
76640;SDS011;65538;50.798;6.064;2023-08-24T11:03:33;5.40;;;2.90;;
76640;SDS011;65538;50.798;6.064;2023-08-24T11:05:59;8.20;;;3.20;;
76640;SDS011;65538;50.798;6.064;2023-08-24T11:08:43;6.70;;;3.77;;
76640;SDS011;65538;50.798;6.064;2023-08-24T11:11:17;7.82;;;3.50;;
76640;SDS011;65538;50.798;6.064;2023-08-24T11:14:12;10.68;;;4.20;;
76640;SDS011;65538;50.798;6.064;2023-08-24T11:16:44;9.20;;;4.30;;
76640;SDS011;65538;50.798;6.064;2023-08-24T11:19:12;11.52;;;4.60;;
76640;SDS011;65538;50.798;6.064;2023-08-24T11:24:03;13.13;;;4.63;;
76640;SDS011;65538;50.798;6.064;2023-08-24T11:26:29;9.75;;;4.28;;
76640;SDS011;65538;50.798;6.064;2023-08-24T11:28:55;12.70;;;5.37;;
76640;SDS011;65538;50.798;6.064;2023-08-24T11:31:22;12.90;;;5.10;;
76640;SDS011;65538;50.798;6.064;2023-08-24T11:33:48;15.25;;;5.43;;
76640;SDS011;65538;50.798;6.064;2023-08-24T11:36:13;10.57;;;4.73;;
76640;SDS011;65538;50.798;6.064;2023-08-24T11:38:42;10.57;;;4.93;;
76640;SDS011;65538;50.798;6.064;2023-08-24T11:41:16;13.77;;;5.50;;
76640;SDS011;65538;50.798;6.064;2023-08-24T11:43:45;19.52;;;6.15;;
76640;SDS011;65538;50.798;6.064;2023-08-24T11:46:11;16.27;;;5.82;;
76640;SDS011;65538;50.798;6.064;2023-08-24T11:48:37;14.05;;;5.70;;
76640;SDS011;65538;50.798;6.064;2023-08-24T11:51:07;12.32;;;6.80;;
76640;SDS011;65538;50.798;6.064;2023-08-24T11:55:59;9.65;;;6.07;;
76640;SDS011;65538;50.798;6.064;2023-08-24T11:58:24;18.85;;;6.93;;
76640;SDS011;65538;50.798;6.064;2023-08-24T12:00:49;13.63;;;6.43;;
76640;SDS011;65538;50.798;6.064;2023-08-24T12:03:14;12.73;;;5.93;;
76640;SDS011;65538;50.798;6.064;2023-08-24T12:05:40;10.77;;;5.20;;
76640;SDS011;65538;50.798;6.064;2023-08-24T12:08:05;11.43;;;4.90;;
76640;SDS011;65538;50.798;6.064;2023-08-24T12:10:31;11.13;;;4.63;;
76640;SDS011;65538;50.798;6.064;2023-08-24T12:13:02;8.23;;;4.72;;
76640;SDS011;65538;50.798;6.064;2023-08-24T12:15:28;17.65;;;5.88;;
76640;SDS011;65538;50.798;6.064;2023-08-24T12:17:53;12.50;;;4.33;;
76640;SDS011;65538;50.798;6.064;2023-08-24T12:20:22;10.53;;;3.97;;
76640;SDS011;65538;50.798;6.064;2023-08-24T12:22:51;6.15;;;3.58;;
76640;SDS011;65538;50.798;6.064;2023-08-24T12:25:16;8.95;;;3.60;;
76640;SDS011;65538;50.798;6.064;2023-08-24T12:27:42;7.30;;;3.30;;
76640;SDS011;65538;50.798;6.064;2023-08-24T12:30:07;6.53;;;3.43;;
76640;SDS011;65538;50.798;6.064;2023-08-24T12:32:45;9.63;;;3.57;;
76640;SDS011;65538;50.798;6.064;2023-08-24T12:35:10;4.82;;;2.70;;
76640;SDS011;65538;50.798;6.064;2023-08-24T12:37:36;7.60;;;3.33;;
76640;SDS011;65538;50.798;6.064;2023-08-24T12:40:02;9.90;;;3.10;;
76640;SDS011;65538;50.798;6.064;2023-08-24T12:42:27;7.25;;;3.17;;
76640;SDS011;65538;50.798;6.064;2023-08-24T12:44:52;8.53;;;2.97;;
76640;SDS011;65538;50.798;6.064;2023-08-24T12:47:17;9.00;;;2.70;;
76640;SDS011;65538;50.798;6.064;2023-08-24T12:49:43;7.23;;;3.27;;
76640;SDS011;65538;50.798;6.064;2023-08-24T12:52:08;7.68;;;3.10;;
76640;SDS011;65538;50.798;6.064;2023-08-24T12:54:33;7.40;;;2.90;;
76640;SDS011;65538;50.798;6.064;2023-08-24T12:56:58;8.63;;;3.10;;
76640;SDS011;65538;50.798;6.064;2023-08-24T12:59:24;6.47;;;2.43;;
76640;SDS011;65538;50.798;6.064;2023-08-24T13:01:49;5.13;;;2.57;;
76640;SDS011;65538;50.798;6.064;2023-08-24T13:04:14;8.60;;;2.50;;
76640;SDS011;65538;50.798;6.064;2023-08-24T13:06:39;5.70;;;2.17;;
76640;SDS011;65538;50.798;6.064;2023-08-24T13:09:04;6.93;;;2.20;;
76640;SDS011;65538;50.798;6.064;2023-08-24T13:11:30;4.65;;;2.10;;
76640;SDS011;65538;50.798;6.064;2023-08-24T13:13:55;9.73;;;2.43;;
76640;SDS011;65538;50.798;6.064;2023-08-24T13:16:20;8.23;;;2.27;;
76640;SDS011;65538;50.798;6.064;2023-08-24T13:18:45;7.67;;;2.70;;
76640;SDS011;65538;50.798;6.064;2023-08-24T13:21:11;6.07;;;2.30;;
76640;SDS011;65538;50.798;6.064;2023-08-24T13:23:36;9.47;;;2.50;;
76640;SDS011;65538;50.798;6.064;2023-08-24T13:26:01;7.90;;;2.80;;
76640;SDS011;65538;50.798;6.064;2023-08-24T13:28:26;10.37;;;2.80;;
76640;SDS011;65538;50.798;6.064;2023-08-24T13:30:52;8.75;;;2.55;;
76640;SDS011;65538;50.798;6.064;2023-08-24T13:33:18;7.30;;;2.75;;
76640;SDS011;65538;50.798;6.064;2023-08-24T13:35:46;8.20;;;3.00;;
76640;SDS011;65538;50.798;6.064;2023-08-24T13:38:11;6.27;;;3.10;;
76640;SDS011;65538;50.798;6.064;2023-08-24T13:40:36;5.90;;;3.03;;
76640;SDS011;65538;50.798;6.064;2023-08-24T13:43:01;8.23;;;2.97;;
76640;SDS011;65538;50.798;6.064;2023-08-24T13:45:27;6.47;;;3.10;;
76640;SDS011;65538;50.798;6.064;2023-08-24T13:47:55;6.88;;;3.22;;
76640;SDS011;65538;50.798;6.064;2023-08-24T13:50:20;9.40;;;3.27;;
76640;SDS011;65538;50.798;6.064;2023-08-24T13:52:46;5.10;;;3.07;;
76640;SDS011;65538;50.798;6.064;2023-08-24T13:55:11;9.67;;;3.57;;
76640;SDS011;65538;50.798;6.064;2023-08-24T13:57:36;6.60;;;3.67;;
76640;SDS011;65538;50.798;6.064;2023-08-24T14:00:01;12.80;;;3.67;;
76640;SDS011;65538;50.798;6.064;2023-08-24T14:02:29;9.20;;;3.40;;
76640;SDS011;65538;50.798;6.064;2023-08-24T14:04:54;8.57;;;3.80;;
76640;SDS011;65538;50.798;6.064;2023-08-24T14:07:19;7.90;;;3.70;;
76640;SDS011;65538;50.798;6.064;2023-08-24T14:09:45;7.95;;;3.60;;
76640;SDS011;65538;50.798;6.064;2023-08-24T14:12:11;6.33;;;3.77;;
76640;SDS011;65538;50.798;6.064;2023-08-24T14:14:36;8.30;;;3.13;;
76640;SDS011;65538;50.798;6.064;2023-08-24T14:17:01;10.20;;;3.63;;
76640;SDS011;65538;50.798;6.064;2023-08-24T14:19:26;8.53;;;4.07;;
76640;SDS011;65538;50.798;6.064;2023-08-24T14:21:52;5.47;;;2.35;;
76640;SDS011;65538;50.798;6.064;2023-08-24T14:24:17;5.70;;;2.20;;
76640;SDS011;65538;50.798;6.064;2023-08-24T14:26:43;4.40;;;2.42;;
76640;SDS011;65538;50.798;6.064;2023-08-24T14:29:10;5.75;;;2.75;;
76640;SDS011;65538;50.798;6.064;2023-08-24T14:31:35;7.18;;;2.75;;
76640;SDS011;65538;50.798;6.064;2023-08-24T14:34:01;8.63;;;3.00;;
76640;SDS011;65538;50.798;6.064;2023-08-24T14:36:27;5.20;;;2.60;;
76640;SDS011;65538;50.798;6.064;2023-08-24T14:38:53;5.88;;;2.13;;
76640;SDS011;65538;50.798;6.064;2023-08-24T14:41:18;6.33;;;2.80;;
76640;SDS011;65538;50.798;6.064;2023-08-24T14:43:43;5.27;;;1.97;;
76640;SDS011;65538;50.798;6.064;2023-08-24T14:46:08;4.30;;;1.80;;
76640;SDS011;65538;50.798;6.064;2023-08-24T14:48:34;3.63;;;1.42;;